Time;durP1;ratioP1;P1;durP2;ratioP2;P2;SDS_P1;SDS_P2;PMS_P1;PMS_P2;Temp;Humidity;BMP_temperature;BMP_pressure;BME280_temperature;BME280_humidity;BME280_pressure;Samples;Min_cycle;Max_cycle;Signal;HPM_P1;HPM_P2
2023/08/27 00:02:23;;;;;;;6.53;4.80;;;15.30;99.90;;;;;;5052556;28;20631;-58
2023/08/27 00:04:52;;;;;;;4.93;4.60;;;15.40;99.90;;;;;;5028384;28;20235;-59
2023/08/27 00:07:23;;;;;;;7.63;4.13;;;15.40;99.90;;;;;;5030385;28;20227;-59
2023/08/27 00:09:54;;;;;;;5.47;4.57;;;15.30;99.90;;;;;;5023074;28;20240;-59
2023/08/27 00:12:22;;;;;;;4.63;4.23;;;15.40;99.90;;;;;;5028594;28;20214;-58
2023/08/27 00:14:52;;;;;;;4.43;3.87;;;15.40;99.90;;;;;;5043665;28;20212;-59
2023/08/27 00:17:21;;;;;;;5.40;4.63;;;15.40;99.90;;;;;;5027739;28;20227;-59
2023/08/27 00:19:49;;;;;;;5.17;4.77;;;15.40;99.90;;;;;;5026841;28;20221;-58
2023/08/27 00:22:17;;;;;;;6.10;4.90;;;15.40;99.90;;;;;;5027810;28;20224;-59
2023/08/27 00:24:47;;;;;;;5.70;5.10;;;15.40;99.90;;;;;;5026925;28;20225;-58
2023/08/27 00:27:15;;;;;;;6.37;5.50;;;15.40;99.90;;;;;;5027190;28;20572;-58
2023/08/27 00:29:43;;;;;;;5.50;5.00;;;15.40;99.90;;;;;;5029554;28;20211;-58
2023/08/27 00:32:12;;;;;;;5.33;4.83;;;15.40;99.90;;;;;;5026216;28;20315;-58
2023/08/27 00:34:53;;;;;;;5.83;5.30;;;15.40;99.90;;;;;;5026120;28;20265;-58
2023/08/27 00:37:22;;;;;;;6.97;5.00;;;15.40;99.90;;;;;;5027956;28;20226;-59
2023/08/27 00:39:52;;;;;;;6.83;5.30;;;15.30;99.90;;;;;;5029226;28;20227;-58
2023/08/27 00:42:21;;;;;;;5.57;5.13;;;15.30;99.90;;;;;;5023089;28;20228;-58
2023/08/27 00:44:49;;;;;;;5.73;5.23;;;15.30;99.90;;;;;;5023853;28;20539;-58
2023/08/27 00:47:18;;;;;;;7.33;5.03;;;15.30;99.90;;;;;;5027373;28;20216;-58
2023/08/27 00:49:47;;;;;;;6.03;5.43;;;15.30;99.90;;;;;;5026326;28;20240;-58
2023/08/27 00:52:17;;;;;;;6.23;5.63;;;15.30;99.90;;;;;;5030279;28;20705;-58
2023/08/27 00:54:46;;;;;;;5.80;5.30;;;15.20;99.90;;;;;;5028303;28;20652;-59
2023/08/27 00:57:16;;;;;;;5.80;5.40;;;15.30;99.90;;;;;;5030304;28;20234;-58
2023/08/27 00:59:44;;;;;;;8.63;5.07;;;15.30;99.90;;;;;;5029584;28;20294;-58
2023/08/27 01:02:13;;;;;;;5.67;5.30;;;15.30;99.90;;;;;;5022694;28;20698;-58
2023/08/27 01:04:42;;;;;;;6.63;5.43;;;15.30;99.90;;;;;;5017452;28;20257;-59
2023/08/27 01:07:14;;;;;;;9.50;5.70;;;15.30;99.90;;;;;;5030682;28;20218;-58
2023/08/27 01:09:51;;;;;;;7.77;5.20;;;15.30;99.90;;;;;;5028948;28;20249;-59
2023/08/27 01:12:31;;;;;;;5.77;5.17;;;15.30;99.90;;;;;;5024325;28;20748;-58
2023/08/27 01:15:02;;;;;;;7.13;5.80;;;15.30;99.90;;;;;;5028706;28;20189;-59
2023/08/27 01:17:33;;;;;;;6.87;6.17;;;15.30;99.90;;;;;;5028618;28;20187;-59
2023/08/27 01:20:01;;;;;;;6.43;5.90;;;15.30;99.90;;;;;;5024244;28;20226;-59
2023/08/27 01:22:31;;;;;;;6.77;6.10;;;15.20;99.90;;;;;;5029760;28;20264;-57
2023/08/27 01:24:59;;;;;;;7.27;6.33;;;15.20;99.90;;;;;;5032448;28;20231;-58
2023/08/27 01:27:31;;;;;;;7.03;5.90;;;15.20;99.90;;;;;;5030323;28;20232;-59
2023/08/27 01:30:09;;;;;;;6.67;5.33;;;15.20;99.90;;;;;;5030086;28;20195;-59
2023/08/27 01:32:41;;;;;;;6.23;5.53;;;15.20;99.90;;;;;;5031271;28;20241;-58
2023/08/27 01:35:11;;;;;;;9.23;5.87;;;15.10;99.90;;;;;;5027281;28;20237;-58
2023/08/27 01:37:42;;;;;;;8.43;5.80;;;15.10;99.90;;;;;;5031064;28;20234;-58
2023/08/27 01:40:11;;;;;;;10.23;5.73;;;15.10;99.90;;;;;;5032419;28;20218;-58
2023/08/27 01:42:39;;;;;;;6.50;5.47;;;15.10;99.90;;;;;;5032914;28;20226;-57
2023/08/27 01:45:12;;;;;;;6.73;5.57;;;15.00;99.90;;;;;;5033008;28;20221;-57
2023/08/27 01:47:40;;;;;;;6.30;5.70;;;15.00;99.90;;;;;;5027516;28;20189;-58
2023/08/27 01:50:09;;;;;;;8.77;5.80;;;15.00;99.90;;;;;;5030425;28;20224;-59
2023/08/27 01:52:38;;;;;;;8.40;6.00;;;14.90;99.90;;;;;;5028672;28;20234;-58
2023/08/27 01:55:08;;;;;;;7.37;5.80;;;14.80;99.90;;;;;;5029901;28;20553;-58
2023/08/27 01:57:37;;;;;;;6.53;5.90;;;14.80;99.90;;;;;;5027193;28;20227;-58
2023/08/27 02:00:09;;;;;;;6.00;5.57;;;14.80;99.90;;;;;;5029685;28;20649;-59
2023/08/27 02:02:37;;;;;;;6.57;5.63;;;14.80;99.90;;;;;;5024929;28;20191;-58
2023/08/27 02:05:06;;;;;;;8.27;6.00;;;14.70;99.90;;;;;;5038807;28;20632;-58
2023/08/27 02:07:37;;;;;;;6.17;5.67;;;14.70;99.90;;;;;;5050835;28;20223;-59
2023/08/27 02:10:08;;;;;;;7.87;6.50;;;14.70;99.90;;;;;;5053826;28;20296;-57
2023/08/27 02:12:36;;;;;;;7.60;6.47;;;14.60;99.90;;;;;;5052436;28;20218;-58
2023/08/27 02:15:07;;;;;;;7.23;6.20;;;14.60;99.90;;;;;;5053850;28;20710;-58
2023/08/27 02:17:37;;;;;;;10.03;6.50;;;14.60;99.90;;;;;;5048460;28;20307;-58
2023/08/27 02:20:09;;;;;;;16.10;6.50;;;14.60;99.90;;;;;;5050731;28;20220;-59
2023/08/27 02:22:38;;;;;;;9.43;6.70;;;14.60;99.90;;;;;;5048860;28;20226;-58
2023/08/27 02:25:09;;;;;;;6.97;6.20;;;14.50;99.90;;;;;;5047836;28;20592;-59
2023/08/27 02:27:37;;;;;;;8.17;6.73;;;14.60;99.90;;;;;;5052966;28;20711;-58
2023/08/27 02:30:07;;;;;;;9.87;7.23;;;14.50;99.90;;;;;;5049603;28;20195;-58
2023/08/27 02:32:35;;;;;;;8.00;6.90;;;14.50;99.90;;;;;;5050726;28;20221;-58
2023/08/27 02:35:03;;;;;;;9.13;7.70;;;14.50;99.90;;;;;;5050021;28;20222;-58
2023/08/27 02:37:32;;;;;;;12.57;7.90;;;14.50;99.90;;;;;;5051094;28;20225;-58
2023/08/27 02:40:00;;;;;;;8.47;7.13;;;14.40;99.90;;;;;;5049294;28;20218;-58
2023/08/27 02:42:30;;;;;;;10.57;7.33;;;14.40;99.90;;;;;;5033162;28;20218;-58
2023/08/27 02:44:59;;;;;;;9.50;7.80;;;14.40;99.90;;;;;;5054474;28;20198;-59
2023/08/27 02:47:27;;;;;;;9.67;7.77;;;14.40;99.90;;;;;;5043832;28;20249;-58
2023/08/27 02:49:55;;;;;;;14.57;7.80;;;14.40;99.90;;;;;;5043908;28;20223;-57
2023/08/27 02:52:24;;;;;;;11.90;8.27;;;14.40;99.90;;;;;;5052390;28;20232;-58
2023/08/27 02:54:52;;;;;;;10.27;7.77;;;14.40;99.90;;;;;;5051536;28;20233;-58
2023/08/27 02:57:20;;;;;;;10.47;8.07;;;14.40;99.90;;;;;;5047591;28;20552;-58
2023/08/27 02:59:50;;;;;;;10.80;8.00;;;14.40;99.90;;;;;;5048544;28;20563;-57
2023/08/27 03:02:18;;;;;;;9.07;7.63;;;14.40;99.90;;;;;;5049759;28;20694;-57
2023/08/27 03:04:47;;;;;;;11.27;8.50;;;14.40;99.90;;;;;;5051498;28;20595;-57
2023/08/27 03:07:15;;;;;;;14.20;8.33;;;14.50;99.90;;;;;;5051831;28;20226;-58
2023/08/27 03:09:43;;;;;;;9.33;7.80;;;14.50;99.90;;;;;;5050316;28;20225;-58
2023/08/27 03:12:12;;;;;;;12.23;8.03;;;14.50;99.90;;;;;;5050287;28;20560;-58
2023/08/27 03:14:40;;;;;;;9.17;8.00;;;14.50;99.90;;;;;;5045871;28;20284;-58
2023/08/27 03:17:30;;;;;;;12.87;8.33;;;14.60;99.90;;;;;;5048005;28;20221;-58
2023/08/27 03:20:01;;;;;;;12.03;7.77;;;14.60;99.90;;;;;;5044801;28;20249;-58
2023/08/27 03:22:30;;;;;;;10.03;7.60;;;14.60;99.90;;;;;;5043412;28;20217;-57
2023/08/27 03:25:00;;;;;;;11.30;8.40;;;14.60;99.90;;;;;;5032121;28;20228;-58
2023/08/27 03:27:29;;;;;;;11.50;8.20;;;14.50;99.90;;;;;;5046612;28;20279;-57
2023/08/27 03:29:58;;;;;;;11.53;8.07;;;14.60;99.90;;;;;;5033784;28;20205;-57
2023/08/27 03:32:26;;;;;;;8.93;7.60;;;14.60;99.90;;;;;;5021330;28;20228;-57
2023/08/27 03:34:56;;;;;;;10.30;7.57;;;14.60;99.90;;;;;;5026135;28;20229;-58
2023/08/27 03:37:24;;;;;;;11.73;7.80;;;14.60;99.90;;;;;;5045812;28;20219;-58
2023/08/27 03:39:53;;;;;;;10.73;7.33;;;14.60;99.90;;;;;;5047685;28;20225;-58
2023/08/27 03:42:24;;;;;;;12.97;7.60;;;14.50;99.90;;;;;;5045343;28;20235;-57
2023/08/27 03:44:52;;;;;;;8.23;7.33;;;14.60;99.90;;;;;;5042229;28;20202;-57
2023/08/27 03:47:20;;;;;;;7.93;6.93;;;14.50;99.90;;;;;;5049911;28;20249;-58
2023/08/27 03:49:49;;;;;;;9.33;8.07;;;14.50;99.90;;;;;;5050500;28;20222;-58
2023/08/27 03:52:18;;;;;;;10.27;7.30;;;14.50;99.90;;;;;;5048095;28;20219;-59
2023/08/27 03:54:47;;;;;;;10.63;7.80;;;14.40;99.90;;;;;;5049037;28;20229;-58
2023/08/27 03:57:15;;;;;;;9.47;7.70;;;14.40;99.90;;;;;;5047414;28;20217;-57
2023/08/27 03:59:43;;;;;;;9.37;7.67;;;14.40;99.90;;;;;;5042675;28;20192;-58
2023/08/27 04:02:12;;;;;;;10.17;7.40;;;14.30;99.90;;;;;;5045630;28;20239;-58
2023/08/27 04:04:40;;;;;;;9.30;7.60;;;14.20;99.90;;;;;;5039816;28;20287;-58
2023/08/27 04:07:08;;;;;;;9.17;7.50;;;14.20;99.90;;;;;;5027470;28;20223;-58
2023/08/27 04:09:38;;;;;;;11.67;7.37;;;14.20;99.90;;;;;;5025451;28;20247;-58
2023/08/27 04:12:07;;;;;;;12.10;8.07;;;14.10;99.90;;;;;;5004080;28;20300;-58
2023/08/27 04:14:35;;;;;;;8.17;7.47;;;14.10;99.90;;;;;;5030433;28;20744;-58
2023/08/27 04:17:04;;;;;;;15.00;8.03;;;14.00;99.90;;;;;;5028931;28;20217;-59
2023/08/27 04:19:32;;;;;;;11.57;8.07;;;14.00;99.90;;;;;;5025606;28;20225;-58
2023/08/27 04:22:01;;;;;;;11.67;7.43;;;14.00;99.90;;;;;;5027122;28;20351;-57
2023/08/27 04:24:29;;;;;;;9.23;8.23;;;14.00;99.90;;;;;;5028005;28;20257;-58
2023/08/27 04:26:59;;;;;;;9.47;8.20;;;14.00;99.90;;;;;;5028547;28;20202;-58
2023/08/27 04:29:27;;;;;;;9.97;7.63;;;14.00;99.90;;;;;;5021452;28;20191;-58
2023/08/27 04:31:56;;;;;;;10.40;7.83;;;13.90;99.90;;;;;;5030638;28;20249;-58
2023/08/27 04:34:24;;;;;;;9.57;7.30;;;13.90;99.90;;;;;;5023353;28;20229;-58
2023/08/27 04:36:52;;;;;;;13.00;7.87;;;13.90;99.90;;;;;;5009313;28;20687;-60
2023/08/27 04:39:21;;;;;;;10.67;7.80;;;13.80;99.90;;;;;;5029268;28;20228;-58
2023/08/27 04:41:49;;;;;;;10.93;7.33;;;13.80;99.90;;;;;;5031100;28;20216;-58
2023/08/27 04:44:19;;;;;;;11.83;7.70;;;13.80;99.90;;;;;;5028120;28;20228;-58
2023/08/27 04:46:47;;;;;;;13.13;7.87;;;13.80;99.90;;;;;;5030790;28;20223;-58
2023/08/27 04:49:16;;;;;;;12.33;8.07;;;13.80;99.90;;;;;;5030287;28;20219;-58
2023/08/27 04:51:44;;;;;;;15.10;8.13;;;13.70;99.90;;;;;;5019543;28;20825;-58
2023/08/27 04:54:12;;;;;;;9.77;7.90;;;13.80;99.90;;;;;;5033629;28;20215;-58
2023/08/27 04:56:40;;;;;;;11.43;8.10;;;13.70;99.90;;;;;;5037212;28;20560;-58
2023/08/27 04:59:09;;;;;;;10.97;7.60;;;13.70;99.90;;;;;;5033503;28;20232;-58
2023/08/27 05:01:39;;;;;;;11.47;8.40;;;13.70;99.90;;;;;;5032130;28;20308;-58
2023/08/27 05:04:07;;;;;;;10.87;7.67;;;13.70;99.90;;;;;;5028207;28;20312;-58
2023/08/27 05:06:36;;;;;;;11.93;8.83;;;13.70;99.90;;;;;;5052662;28;20220;-58
2023/08/27 05:09:04;;;;;;;11.47;7.73;;;13.70;99.90;;;;;;5050882;28;20471;-58
2023/08/27 05:11:32;;;;;;;12.27;8.40;;;13.70;99.90;;;;;;5051494;28;20195;-58
2023/08/27 05:14:01;;;;;;;13.67;8.47;;;13.60;99.90;;;;;;5044899;28;20220;-58
2023/08/27 05:16:32;;;;;;;12.53;8.10;;;13.60;99.90;;;;;;5048944;28;20713;-58
2023/08/27 05:19:01;;;;;;;13.20;8.13;;;13.70;99.90;;;;;;5053259;28;20218;-59
2023/08/27 05:21:30;;;;;;;9.83;7.23;;;13.70;99.90;;;;;;5049921;28;20232;-58
2023/08/27 05:24:01;;;;;;;10.97;7.80;;;13.70;99.90;;;;;;5047410;28;20579;-59
2023/08/27 05:26:30;;;;;;;16.27;8.67;;;13.70;99.90;;;;;;5051511;28;20185;-58
2023/08/27 05:28:59;;;;;;;12.63;7.70;;;13.70;99.90;;;;;;5049713;28;20268;-58
2023/08/27 05:31:29;;;;;;;10.13;7.73;;;13.70;99.90;;;;;;5054359;28;20270;-58
2023/08/27 05:33:58;;;;;;;10.23;7.30;;;13.70;99.90;;;;;;5049441;28;20690;-58
2023/08/27 05:36:27;;;;;;;9.87;7.27;;;13.70;99.90;;;;;;5054349;28;20312;-58
2023/08/27 05:38:56;;;;;;;13.60;7.80;;;13.80;99.90;;;;;;5051791;28;20189;-58
2023/08/27 05:41:24;;;;;;;11.07;7.33;;;13.80;99.90;;;;;;5047774;28;20191;-58
2023/08/27 05:43:52;;;;;;;14.30;7.47;;;13.90;99.90;;;;;;5047708;28;20213;-58
2023/08/27 05:46:21;;;;;;;10.07;7.30;;;14.00;99.90;;;;;;5053871;28;20247;-58
2023/08/27 05:48:50;;;;;;;11.13;7.17;;;14.00;99.90;;;;;;5048407;28;20212;-59
2023/08/27 05:51:18;;;;;;;9.80;7.10;;;14.10;99.90;;;;;;5028222;28;20217;-58
2023/08/27 05:53:48;;;;;;;9.57;6.83;;;14.20;99.90;;;;;;5049195;28;20203;-58
2023/08/27 05:56:16;;;;;;;8.23;6.67;;;14.20;99.90;;;;;;5048314;28;20225;-58
2023/08/27 05:58:44;;;;;;;8.57;6.73;;;14.30;99.90;;;;;;5047269;28;20223;-58
2023/08/27 06:01:13;;;;;;;6.57;5.73;;;14.40;99.90;;;;;;5050431;28;20301;-59
2023/08/27 06:03:42;;;;;;;9.53;6.70;;;14.40;99.90;;;;;;5048652;28;20210;-58
2023/08/27 06:06:10;;;;;;;8.93;6.57;;;14.50;99.90;;;;;;5051372;28;20219;-59
2023/08/27 06:08:38;;;;;;;9.17;6.17;;;14.60;99.90;;;;;;5053832;28;20193;-58
2023/08/27 06:11:08;;;;;;;8.23;6.30;;;14.60;99.90;;;;;;5047110;28;20304;-58
2023/08/27 06:13:36;;;;;;;9.63;6.20;;;14.70;99.90;;;;;;5047994;28;20300;-59
2023/08/27 06:16:05;;;;;;;6.27;5.67;;;14.80;99.90;;;;;;5049033;28;20215;-58
2023/08/27 06:18:36;;;;;;;7.83;5.50;;;14.90;99.90;;;;;;5045567;28;20222;-58
2023/08/27 06:21:04;;;;;;;6.77;5.67;;;14.90;99.90;;;;;;5053485;28;20194;-58
2023/08/27 06:23:33;;;;;;;9.60;6.13;;;15.00;99.90;;;;;;5047286;28;20222;-58
2023/08/27 06:26:05;;;;;;;8.43;5.43;;;15.10;99.90;;;;;;5049836;28;20250;-58
2023/08/27 06:28:34;;;;;;;8.83;5.60;;;15.10;99.90;;;;;;5045802;28;20245;-58
2023/08/27 06:31:03;;;;;;;6.33;5.70;;;15.20;99.90;;;;;;5041251;28;20217;-57
2023/08/27 06:33:31;;;;;;;6.37;5.13;;;15.20;99.90;;;;;;5043519;28;20232;-58
2023/08/27 06:35:59;;;;;;;8.83;5.37;;;15.40;99.90;;;;;;5048462;28;20193;-59
2023/08/27 06:38:28;;;;;;;10.80;5.33;;;15.50;99.90;;;;;;5048721;28;20270;-59
2023/08/27 06:40:56;;;;;;;6.87;4.93;;;15.60;99.90;;;;;;5049481;28;20327;-58
2023/08/27 06:43:24;;;;;;;5.57;5.07;;;15.70;99.90;;;;;;5047643;28;20219;-58
2023/08/27 06:45:54;;;;;;;6.10;4.90;;;15.60;99.90;;;;;;5046230;28;20312;-58
2023/08/27 06:48:23;;;;;;;5.53;5.03;;;15.70;99.90;;;;;;5026603;28;20579;-58
2023/08/27 06:50:52;;;;;;;6.17;4.80;;;15.90;99.90;;;;;;5051802;28;20668;-58
2023/08/27 06:53:20;;;;;;;6.60;4.40;;;16.00;99.90;;;;;;5051085;28;20218;-58
2023/08/27 06:55:49;;;;;;;8.57;4.83;;;16.10;99.90;;;;;;5050246;28;20700;-58
2023/08/27 06:58:18;;;;;;;5.23;4.33;;;16.10;99.90;;;;;;5050154;28;20230;-59
2023/08/27 07:00:46;;;;;;;6.07;4.60;;;16.20;99.90;;;;;;5051266;28;20235;-59
2023/08/27 07:03:36;;;;;;;4.47;4.07;;;16.20;99.90;;;;;;5047942;28;20233;-58
2023/08/27 07:06:05;;;;;;;8.63;4.27;;;16.20;99.90;;;;;;5050950;28;20711;-58
2023/08/27 07:08:35;;;;;;;8.37;4.33;;;16.30;99.90;;;;;;5045962;28;20578;-57
2023/08/27 07:11:04;;;;;;;4.37;4.07;;;16.50;99.90;;;;;;5047849;28;21009;-58
2023/08/27 07:13:32;;;;;;;6.93;3.97;;;16.60;99.90;;;;;;5044353;28;20228;-57
2023/08/27 07:16:02;;;;;;;4.03;3.60;;;16.70;99.90;;;;;;5046919;28;20242;-58
2023/08/27 07:18:32;;;;;;;6.27;3.97;;;16.90;99.90;;;;;;5031001;28;20217;-57
2023/08/27 07:21:02;;;;;;;5.77;3.97;;;17.10;99.90;;;;;;5046854;28;20219;-57
2023/08/27 07:23:32;;;;;;;6.83;4.00;;;17.20;99.90;;;;;;5044463;28;20245;-57
2023/08/27 07:26:03;;;;;;;3.87;3.57;;;17.30;99.90;;;;;;5042874;28;20228;-57
2023/08/27 07:28:32;;;;;;;7.67;3.67;;;17.40;99.90;;;;;;5030052;28;20275;-58
2023/08/27 07:31:00;;;;;;;7.37;3.37;;;17.20;99.90;;;;;;5046336;28;20236;-57
2023/08/27 07:33:29;;;;;;;9.87;3.73;;;17.20;99.90;;;;;;5043959;28;20228;-57
2023/08/27 07:35:57;;;;;;;7.43;3.00;;;17.40;99.90;;;;;;5044661;28;20193;-57
2023/08/27 07:38:28;;;;;;;5.33;3.20;;;17.40;99.90;;;;;;5046205;28;20189;-57
2023/08/27 07:40:56;;;;;;;4.87;3.13;;;17.50;99.90;;;;;;5047755;28;20217;-58
2023/08/27 07:43:25;;;;;;;5.43;3.10;;;17.60;99.90;;;;;;5046172;28;20213;-58
2023/08/27 07:45:53;;;;;;;6.23;3.00;;;17.60;99.90;;;;;;5047102;28;20268;-58
2023/08/27 07:48:21;;;;;;;5.17;2.73;;;17.70;99.90;;;;;;5047909;28;20611;-58
2023/08/27 07:50:52;;;;;;;3.17;2.80;;;17.70;99.90;;;;;;5043273;28;20199;-57
2023/08/27 07:53:20;;;;;;;2.77;2.20;;;17.90;99.90;;;;;;5045562;28;21004;-58
2023/08/27 07:55:50;;;;;;;8.67;2.33;;;18.00;99.90;;;;;;5050256;28;20221;-59
2023/08/27 07:58:22;;;;;;;3.93;1.97;;;18.10;99.90;;;;;;5045419;28;20229;-58
2023/08/27 08:00:58;;;;;;;6.13;2.03;;;18.20;99.90;;;;;;5049269;28;20220;-58
2023/08/27 08:03:26;;;;;;;3.73;1.90;;;18.30;99.90;;;;;;5032311;28;20224;-59
2023/08/27 08:05:55;;;;;;;7.10;2.33;;;18.40;99.90;;;;;;5048139;28;20229;-58
2023/08/27 08:08:23;;;;;;;4.63;2.13;;;18.40;99.90;;;;;;5046690;28;20670;-59
2023/08/27 08:10:56;;;;;;;6.23;2.00;;;18.20;99.90;;;;;;5032781;28;20225;-59
2023/08/27 08:13:25;;;;;;;3.00;2.70;;;18.00;99.90;;;;;;5042142;28;20248;-59
2023/08/27 08:15:54;;;;;;;4.77;2.33;;;18.00;99.90;;;;;;5045997;28;20226;-58
2023/08/27 08:18:22;;;;;;;5.03;2.10;;;18.00;99.90;;;;;;5047780;28;20220;-59
2023/08/27 08:20:53;;;;;;;5.10;2.40;;;18.10;99.90;;;;;;5047585;28;20192;-58
2023/08/27 08:23:22;;;;;;;4.07;2.03;;;18.30;99.90;;;;;;5048595;28;21884;-58
2023/08/27 08:25:50;;;;;;;3.33;1.87;;;18.50;99.90;;;;;;5047818;28;20221;-58
2023/08/27 08:28:20;;;;;;;4.53;1.80;;;18.80;99.90;;;;;;5045172;28;20701;-58
2023/08/27 08:30:49;;;;;;;1.70;1.60;;;19.10;99.90;;;;;;5045295;28;20228;-58
2023/08/27 08:33:17;;;;;;;4.73;1.83;;;19.20;99.90;;;;;;5047002;28;20248;-59
2023/08/27 08:35:47;;;;;;;3.10;1.70;;;19.10;99.90;;;;;;5043993;28;20282;-59
2023/08/27 08:38:15;;;;;;;4.07;2.00;;;18.80;99.90;;;;;;5049185;28;20218;-58
2023/08/27 08:40:49;;;;;;;2.23;1.73;;;18.70;99.90;;;;;;5047210;28;20225;-58
2023/08/27 08:43:27;;;;;;;2.67;1.70;;;18.70;99.90;;;;;;5045450;28;20224;-58
2023/08/27 08:46:03;;;;;;;2.03;1.60;;;18.80;99.90;;;;;;5047479;28;20226;-58
2023/08/27 08:48:36;;;;;;;3.07;1.40;;;18.80;99.90;;;;;;5049834;28;20231;-58
2023/08/27 08:51:08;;;;;;;2.80;1.50;;;18.80;99.90;;;;;;5044482;28;20210;-58
2023/08/27 08:53:40;;;;;;;3.70;1.50;;;18.80;99.90;;;;;;5050678;28;20238;-57
2023/08/27 08:56:13;;;;;;;1.77;1.50;;;18.90;99.90;;;;;;5045056;28;20224;-58
2023/08/27 08:58:51;;;;;;;1.93;1.30;;;18.90;99.90;;;;;;5043818;28;20311;-58
2023/08/27 09:01:21;;;;;;;1.73;1.30;;;18.70;99.90;;;;;;5047859;28;20220;-58
2023/08/27 09:03:50;;;;;;;1.70;1.60;;;18.70;99.90;;;;;;5046851;28;20223;-58
2023/08/27 09:06:18;;;;;;;1.87;1.60;;;18.70;99.90;;;;;;5044848;28;20232;-57
2023/08/27 09:08:47;;;;;;;1.57;1.47;;;18.40;99.90;;;;;;5042997;28;20216;-57
2023/08/27 09:11:16;;;;;;;5.70;1.50;;;18.20;99.90;;;;;;5041994;28;20249;-57
2023/08/27 09:13:46;;;;;;;3.17;1.57;;;18.30;99.90;;;;;;5043251;28;20587;-58
2023/08/27 09:16:15;;;;;;;1.40;1.30;;;18.60;99.90;;;;;;5038908;28;20230;-58
2023/08/27 09:18:43;;;;;;;1.43;1.43;;;18.70;99.90;;;;;;5034413;28;20231;-58
2023/08/27 09:21:12;;;;;;;2.20;1.30;;;18.90;99.90;;;;;;5043133;28;20319;-57
2023/08/27 09:23:40;;;;;;;3.23;1.43;;;19.30;99.90;;;;;;5045271;28;20288;-59
2023/08/27 09:26:12;;;;;;;2.43;1.30;;;19.40;99.90;;;;;;5034852;28;20220;-59
2023/08/27 09:28:41;;;;;;;2.70;1.30;;;19.20;99.90;;;;;;5041078;28;20228;-59
2023/08/27 09:31:11;;;;;;;4.13;1.60;;;19.10;99.90;;;;;;5043545;28;20683;-59
2023/08/27 09:33:41;;;;;;;3.23;1.50;;;19.40;99.90;;;;;;5040862;28;20702;-58
2023/08/27 09:36:11;;;;;;;1.63;1.50;;;19.80;99.90;;;;;;5038814;28;20310;-58
2023/08/27 09:38:40;;;;;;;3.00;1.30;;;20.20;99.90;;;;;;5045062;28;20230;-59
2023/08/27 09:41:16;;;;;;;4.50;1.60;;;20.60;99.90;;;;;;5041495;28;20642;-57
2023/08/27 09:43:52;;;;;;;1.40;1.30;;;20.70;99.90;;;;;;5024748;28;20714;-58
2023/08/27 09:46:22;;;;;;;1.00;1.00;;;20.70;99.90;;;;;;5038954;28;20302;-57
2023/08/27 09:48:58;;;;;;;2.37;1.37;;;20.90;99.90;;;;;;5046878;28;20227;-58
2023/08/27 09:51:28;;;;;;;2.40;1.00;;;20.80;99.90;;;;;;5047269;28;20241;-58
2023/08/27 09:53:57;;;;;;;1.97;1.30;;;20.80;99.90;;;;;;5045734;28;20196;-57
2023/08/27 09:56:25;;;;;;;1.30;1.20;;;20.90;99.90;;;;;;5047679;28;20216;-58
2023/08/27 09:58:55;;;;;;;4.97;1.10;;;20.80;99.90;;;;;;5048691;28;20568;-58
2023/08/27 10:01:33;;;;;;;3.40;1.37;;;20.60;99.90;;;;;;5051496;28;20219;-58
2023/08/27 10:04:03;;;;;;;1.57;1.30;;;20.50;99.90;;;;;;5048535;28;20252;-58
2023/08/27 10:06:36;;;;;;;2.30;1.30;;;20.10;99.90;;;;;;5041535;28;20673;-58
2023/08/27 10:09:04;;;;;;;1.43;1.33;;;20.10;99.90;;;;;;5045600;28;20197;-59
2023/08/27 10:11:34;;;;;;;1.20;1.13;;;20.40;99.90;;;;;;5042707;28;20701;-58
2023/08/27 10:14:03;;;;;;;3.73;1.33;;;20.70;99.90;;;;;;5050335;28;20248;-57
2023/08/27 10:16:36;;;;;;;1.20;1.10;;;21.00;99.90;;;;;;5047599;28;21176;-58
2023/08/27 10:19:05;;;;;;;2.07;1.20;;;21.20;99.90;;;;;;5044553;28;20238;-58
2023/08/27 10:21:34;;;;;;;1.30;1.20;;;21.20;99.90;;;;;;5040015;28;20225;-58
2023/08/27 10:24:02;;;;;;;1.37;1.13;;;21.00;99.90;;;;;;5047002;28;20270;-58
2023/08/27 10:26:32;;;;;;;1.40;1.30;;;20.70;99.90;;;;;;5032006;28;20201;-58
2023/08/27 10:29:01;;;;;;;1.17;1.17;;;20.80;99.90;;;;;;5047249;28;20229;-58
2023/08/27 10:31:29;;;;;;;1.73;1.10;;;21.00;99.90;;;;;;5042792;28;20305;-58
2023/08/27 10:33:59;;;;;;;1.10;1.00;;;21.00;99.90;;;;;;5044563;28;20778;-58
2023/08/27 10:36:34;;;;;;;1.43;1.10;;;20.90;99.90;;;;;;5046821;28;20235;-59
2023/08/27 10:39:03;;;;;;;1.23;1.00;;;21.00;99.90;;;;;;5044179;28;20200;-59
2023/08/27 10:41:34;;;;;;;1.20;1.20;;;20.70;99.90;;;;;;5044260;28;20277;-58
2023/08/27 10:44:04;;;;;;;1.37;1.10;;;20.60;99.90;;;;;;5043753;28;20218;-58
2023/08/27 10:46:33;;;;;;;3.53;1.20;;;21.00;99.90;;;;;;5043000;28;20274;-59
2023/08/27 10:49:16;;;;;;;2.57;1.00;;;21.10;99.90;;;;;;5049585;28;20232;-58
2023/08/27 10:51:44;;;;;;;2.13;1.47;;;20.90;99.90;;;;;;5047166;28;20224;-59
2023/08/27 10:54:26;;;;;;;2.97;1.27;;;21.00;99.90;;;;;;5050756;28;20199;-59
2023/08/27 10:56:55;;;;;;;2.77;1.10;;;21.30;99.90;;;;;;5040596;28;20240;-57
2023/08/27 10:59:28;;;;;;;1.47;1.10;;;22.10;99.90;;;;;;5047143;28;20197;-59
2023/08/27 11:02:08;;;;;;;1.40;1.10;;;22.40;99.90;;;;;;5049428;28;20259;-58
2023/08/27 11:04:41;;;;;;;1.37;1.10;;;22.10;99.90;;;;;;5045328;28;20228;-58
2023/08/27 11:07:14;;;;;;;1.33;1.33;;;21.40;99.90;;;;;;5045850;28;20858;-58
2023/08/27 11:09:48;;;;;;;1.20;1.10;;;21.10;99.90;;;;;;5040572;28;20227;-58
2023/08/27 11:12:22;;;;;;;1.73;1.07;;;20.80;99.90;;;;;;5045965;28;20317;-58
2023/08/27 11:14:51;;;;;;;1.27;1.20;;;20.60;99.90;;;;;;5028671;28;20207;-59
2023/08/27 11:17:27;;;;;;;3.17;1.20;;;20.40;99.90;;;;;;5051261;28;20316;-58
2023/08/27 11:19:58;;;;;;;1.40;1.30;;;20.20;99.90;;;;;;5053429;28;20224;-58
2023/08/27 11:22:26;;;;;;;1.17;1.07;;;20.10;99.90;;;;;;5046322;28;20228;-58
2023/08/27 11:24:56;;;;;;;1.40;1.30;;;19.90;99.90;;;;;;5047622;28;20574;-59
2023/08/27 11:27:26;;;;;;;1.10;1.10;;;19.90;99.90;;;;;;5049439;28;20212;-59
2023/08/27 11:29:55;;;;;;;0.80;0.80;;;19.80;99.90;;;;;;5048893;28;20189;-57
2023/08/27 11:32:23;;;;;;;0.93;0.93;;;19.30;99.90;;;;;;5050726;28;20197;-58
2023/08/27 11:34:53;;;;;;;3.33;1.13;;;18.80;99.90;;;;;;5043423;28;20681;-58
2023/08/27 11:37:30;;;;;;;1.20;1.17;;;18.30;99.90;;;;;;5045542;28;20228;-58
2023/08/27 11:39:59;;;;;;;1.03;1.00;;;18.00;99.90;;;;;;5050334;28;20212;-59
2023/08/27 11:42:27;;;;;;;1.40;1.40;;;17.70;99.90;;;;;;5050424;28;20224;-59
2023/08/27 11:44:56;;;;;;;2.50;2.33;;;17.40;99.90;;;;;;5049378;28;20719;-58
2023/08/27 11:47:25;;;;;;;2.13;2.03;;;17.30;99.90;;;;;;5044600;28;20197;-59
2023/08/27 11:49:58;;;;;;;4.50;4.20;;;17.10;99.90;;;;;;5048383;28;20697;-59
2023/08/27 11:52:29;;;;;;;1.83;1.83;;;17.20;99.90;;;;;;5042952;28;20221;-58
2023/08/27 11:54:57;;;;;;;2.00;1.90;;;17.10;99.90;;;;;;5047346;28;20212;-58
2023/08/27 11:57:27;;;;;;;2.63;1.90;;;17.10;99.90;;;;;;5047111;28;20229;-58
2023/08/27 11:59:55;;;;;;;4.23;2.10;;;17.00;99.90;;;;;;5044457;28;20194;-59
2023/08/27 12:02:24;;;;;;;2.60;1.97;;;17.20;99.90;;;;;;5047081;28;20200;-59
2023/08/27 12:04:53;;;;;;;1.87;1.80;;;17.70;99.90;;;;;;5045386;28;20239;-59
2023/08/27 12:07:35;;;;;;;1.90;1.80;;;18.30;99.90;;;;;;5027472;28;20220;-59
2023/08/27 12:10:09;;;;;;;1.90;1.80;;;18.90;99.90;;;;;;5046872;28;20219;-59
2023/08/27 12:12:39;;;;;;;2.10;2.10;;;19.30;99.90;;;;;;5045154;28;20256;-59
2023/08/27 12:15:08;;;;;;;2.47;2.37;;;19.30;99.90;;;;;;5041989;28;20195;-59
2023/08/27 12:17:38;;;;;;;2.87;2.77;;;18.90;99.90;;;;;;5040054;28;20212;-59
2023/08/27 12:20:07;;;;;;;2.83;2.60;;;18.80;99.90;;;;;;5043176;28;20228;-59
2023/08/27 12:22:44;;;;;;;2.80;2.60;;;19.10;99.90;;;;;;5041855;28;20233;-59
2023/08/27 12:25:13;;;;;;;2.50;2.40;;;19.50;99.90;;;;;;5049645;28;20213;-59
2023/08/27 12:27:42;;;;;;;2.93;2.73;;;19.90;99.90;;;;;;5042147;28;20260;-59
2023/08/27 12:30:11;;;;;;;2.40;2.30;;;20.40;99.90;;;;;;5041788;28;20248;-59
2023/08/27 12:32:39;;;;;;;3.43;2.50;;;20.70;99.90;;;;;;5048471;28;20236;-59
2023/08/27 12:35:10;;;;;;;2.80;2.70;;;20.90;99.90;;;;;;5041555;28;20787;-59
2023/08/27 12:37:39;;;;;;;3.07;2.80;;;21.00;99.90;;;;;;5040943;28;20218;-59
2023/08/27 12:40:11;;;;;;;2.67;2.57;;;21.10;99.90;;;;;;5045751;28;20249;-59
2023/08/27 12:42:39;;;;;;;2.90;2.70;;;21.00;99.90;;;;;;5041738;28;20744;-59
2023/08/27 12:45:08;;;;;;;2.70;2.50;;;20.70;99.90;;;;;;5038237;28;20281;-59
2023/08/27 12:47:37;;;;;;;4.13;2.40;;;20.40;99.90;;;;;;5046975;28;20190;-59
2023/08/27 12:50:07;;;;;;;3.07;2.73;;;20.30;99.90;;;;;;5045381;28;20237;-59
2023/08/27 12:52:35;;;;;;;3.20;3.00;;;20.10;99.90;;;;;;5044433;28;20231;-58
2023/08/27 12:55:03;;;;;;;3.40;3.10;;;19.90;99.90;;;;;;5040118;28;20228;-60
2023/08/27 12:57:33;;;;;;;2.63;2.50;;;19.70;99.90;;;;;;5041811;28;20233;-59
2023/08/27 13:00:03;;;;;;;2.50;2.50;;;19.70;99.90;;;;;;5045861;28;20197;-59